createdAt,value
2023-04-02T00:00:47.791Z,47.31
2023-04-02T00:01:48.905Z,51.11
2023-04-02T00:02:48.981Z,50.18
2023-04-02T00:03:48.980Z,47.88
2023-04-02T00:04:49.010Z,53.47
2023-04-02T00:05:49.076Z,49.28
2023-04-02T00:06:49.117Z,47.70
2023-04-02T00:07:48.176Z,47.85
2023-04-02T00:08:49.236Z,49.03
2023-04-02T00:09:48.305Z,48.59
2023-04-02T00:10:49.345Z,49.59
2023-04-02T00:11:49.447Z,47.72
2023-04-02T00:12:49.461Z,49.25
2023-04-02T00:13:49.513Z,50.01
2023-04-02T00:14:49.575Z,50.51
2023-04-02T00:15:49.631Z,48.41
2023-04-02T00:16:48.754Z,44.05
2023-04-02T00:17:49.788Z,44.49
2023-04-02T00:18:49.808Z,46.30
2023-04-02T00:19:49.863Z,44.65
2023-04-02T00:20:48.926Z,44.76
2023-04-02T00:21:50.001Z,51.68
2023-04-02T00:22:50.032Z,50.28
2023-04-02T00:23:50.078Z,51.67
2023-04-02T00:24:50.136Z,50.77
2023-04-02T00:25:49.181Z,48.05
2023-04-02T00:26:50.249Z,50.26
2023-04-02T00:27:50.369Z,50.40
2023-04-02T00:28:50.356Z,46.18
2023-04-02T00:29:50.427Z,45.36
2023-04-02T00:30:50.480Z,47.30
2023-04-02T00:31:50.592Z,46.16
2023-04-02T00:32:49.616Z,45.95
2023-04-02T00:33:49.673Z,46.87
2023-04-02T00:34:50.734Z,48.83
2023-04-02T00:35:50.830Z,44.95
2023-04-02T00:36:50.814Z,45.01
2023-04-02T00:37:50.868Z,48.22
2023-04-02T00:38:50.917Z,46.41
2023-04-02T00:39:50.970Z,44.69
2023-04-02T00:40:51.047Z,43.21
2023-04-02T00:41:51.079Z,43.21
2023-04-02T00:42:51.153Z,47.94
2023-04-02T00:43:50.239Z,51.76
2023-04-02T00:44:51.268Z,47.35
2023-04-02T00:45:51.378Z,48.84
2023-04-02T00:46:51.371Z,45.36
2023-04-02T00:47:51.503Z,46.65
2023-04-02T00:48:51.483Z,47.52
2023-04-02T00:49:51.529Z,46.21
2023-04-02T00:50:51.668Z,49.02
2023-04-02T00:51:50.645Z,45.68
2023-04-02T00:52:50.707Z,49.34
2023-04-02T00:53:51.771Z,50.59
2023-04-02T00:54:51.844Z,45.98
2023-04-02T00:55:50.906Z,44.27
2023-04-02T00:56:51.979Z,49.86
2023-04-02T00:57:52.013Z,46.16
2023-04-02T00:58:52.083Z,47.43
2023-04-02T00:59:52.162Z,46.49
2023-04-02T01:00:52.185Z,47.45
2023-04-02T01:01:52.276Z,48.38
2023-04-02T01:02:52.436Z,47.63
2023-04-02T01:03:51.396Z,43.78
2023-04-02T01:04:52.414Z,46.85
2023-04-02T01:05:52.502Z,48.81
2023-04-02T01:06:52.556Z,49.12
2023-04-02T01:07:52.642Z,47.94
2023-04-02T01:08:52.677Z,46.12
2023-04-02T01:09:52.728Z,46.17
2023-04-02T01:10:52.789Z,43.79
2023-04-02T01:11:52.865Z,42.40
2023-04-02T01:12:51.909Z,45.96
2023-04-02T01:13:52.975Z,45.43
2023-04-02T01:14:53.029Z,44.98
2023-04-02T01:15:52.163Z,44.24
2023-04-02T01:16:53.140Z,44.30
2023-04-02T01:17:52.240Z,47.04
2023-04-02T01:18:53.275Z,49.33
2023-04-02T01:19:52.385Z,43.72
2023-04-02T01:20:53.404Z,43.82
2023-04-02T01:21:53.464Z,42.13
2023-04-02T01:22:53.544Z,44.53
2023-04-02T01:23:53.643Z,40.43
2023-04-02T01:24:52.669Z,40.07
2023-04-02T01:25:52.716Z,42.36
2023-04-02T01:26:52.781Z,43.45
2023-04-02T01:27:53.856Z,46.11
2023-04-02T01:28:53.911Z,44.89
2023-04-02T01:29:53.940Z,42.34
2023-04-02T01:30:54.141Z,45.12
2023-04-02T01:31:53.052Z,44.15
2023-04-02T01:32:54.164Z,42.95
2023-04-02T01:33:54.176Z,46.94
2023-04-02T01:34:53.225Z,41.86
2023-04-02T01:35:54.330Z,49.60
2023-04-02T01:36:54.350Z,46.01
2023-04-02T01:37:54.450Z,45.71
2023-04-02T01:38:54.491Z,44.39
2023-04-02T01:39:54.542Z,43.76
2023-04-02T01:40:54.619Z,44.91
2023-04-02T01:41:54.659Z,43.62
2023-04-02T01:42:53.720Z,44.51
2023-04-02T01:43:54.800Z,46.06
2023-04-02T01:44:54.848Z,46.30
2023-04-02T01:45:54.906Z,44.94
2023-04-02T01:46:55.065Z,47.83
2023-04-02T01:47:55.067Z,43.46
2023-04-02T01:48:54.091Z,46.89
2023-04-02T01:49:55.168Z,47.18
2023-04-02T01:50:54.225Z,44.43
2023-04-02T01:51:54.266Z,44.64
2023-04-02T01:52:55.315Z,45.73
2023-04-02T01:53:55.407Z,45.31
2023-04-02T01:54:55.423Z,43.96
2023-04-02T01:55:55.517Z,46.09
2023-04-02T01:56:55.557Z,47.53
2023-04-02T01:57:55.695Z,47.20
2023-04-02T01:58:55.675Z,44.33
2023-04-02T01:59:55.742Z,46.83
2023-04-02T02:00:54.837Z,49.24
2023-04-02T02:01:55.925Z,47.25
2023-04-02T02:02:56.013Z,49.14
2023-04-02T02:03:56.022Z,45.38
2023-04-02T02:04:56.034Z,44.52
2023-04-02T02:05:55.149Z,44.00
2023-04-02T02:06:56.148Z,44.75
2023-04-02T02:07:56.245Z,50.79
2023-04-02T02:08:56.686Z,50.08
2023-04-02T02:09:55.337Z,45.87
2023-04-02T02:10:56.401Z,47.71
2023-04-02T02:11:56.466Z,48.66
2023-04-02T02:12:56.615Z,44.49
2023-04-02T02:13:55.638Z,45.42
2023-04-02T02:14:55.694Z,44.94
2023-04-02T02:15:56.791Z,42.56
2023-04-02T02:16:56.861Z,41.59
2023-04-02T02:17:56.928Z,49.09
2023-04-02T02:18:56.935Z,53.31
2023-04-02T02:19:56.980Z,46.43
2023-04-02T02:20:57.111Z,47.71
2023-04-02T02:21:57.146Z,43.95
2023-04-02T02:22:56.198Z,45.37
2023-04-02T02:23:56.234Z,46.06
2023-04-02T02:24:57.304Z,42.08
2023-04-02T02:25:57.369Z,42.18
2023-04-02T02:26:57.430Z,46.08
2023-04-02T02:27:56.496Z,42.66
2023-04-02T02:28:57.554Z,41.78
2023-04-02T02:29:56.625Z,44.60
2023-04-02T02:30:57.686Z,43.04
2023-04-02T02:31:57.784Z,43.22
2023-04-02T02:32:57.843Z,46.87
2023-04-02T02:33:56.891Z,47.20
2023-04-02T02:34:57.959Z,44.27
2023-04-02T02:35:58.027Z,49.41
2023-04-02T02:36:57.054Z,45.97
2023-04-02T02:37:57.125Z,45.58
2023-04-02T02:38:57.202Z,44.63
2023-04-02T02:39:58.263Z,47.09
2023-04-02T02:40:57.314Z,43.59
2023-04-02T02:41:58.406Z,47.54
2023-04-02T02:42:58.456Z,47.76
2023-04-02T02:43:57.501Z,44.88
2023-04-02T02:44:57.566Z,47.64
2023-04-02T02:45:58.693Z,46.21
2023-04-02T02:46:57.667Z,46.78
2023-04-02T02:47:58.780Z,47.40
2023-04-02T02:48:58.769Z,47.51
2023-04-02T02:49:59.094Z,46.05
2023-04-02T02:50:57.892Z,42.50
2023-04-02T02:51:58.916Z,47.63
2023-04-02T02:52:58.973Z,48.44
2023-04-02T02:53:58.022Z,46.35
2023-04-02T02:54:58.094Z,44.42
2023-04-02T02:55:59.096Z,45.90
2023-04-02T02:56:59.195Z,42.70
2023-04-02T02:57:59.219Z,45.87
2023-04-02T02:58:59.226Z,46.09
2023-04-02T02:59:59.296Z,43.29
2023-04-02T03:00:58.336Z,45.04
2023-04-02T03:01:59.363Z,46.57
2023-04-02T03:02:59.485Z,47.84
2023-04-02T03:03:59.588Z,48.80
2023-04-02T03:04:59.583Z,50.89
2023-04-02T03:05:59.614Z,50.89
2023-04-02T03:06:59.673Z,47.60
2023-04-02T03:07:58.691Z,45.48
2023-04-02T03:08:59.745Z,46.18
2023-04-02T03:09:59.800Z,43.34
2023-04-02T03:10:59.842Z,43.23
2023-04-02T03:11:59.961Z,43.39
2023-04-02T03:12:59.965Z,40.60
2023-04-02T03:14:00.047Z,44.08
2023-04-02T03:14:59.092Z,43.80
2023-04-02T03:16:00.243Z,41.04
2023-04-02T03:17:00.228Z,41.42
2023-04-02T03:18:00.283Z,41.57
2023-04-02T03:18:59.361Z,40.63
2023-04-02T03:20:00.378Z,43.86
2023-04-02T03:21:00.429Z,44.51
2023-04-02T03:21:59.467Z,43.22
2023-04-02T03:23:00.554Z,44.56
2023-04-02T03:24:00.623Z,42.78
2023-04-02T03:25:00.701Z,44.34
2023-04-02T03:26:00.756Z,43.10
2023-04-02T03:27:00.855Z,44.17
2023-04-02T03:28:00.853Z,44.62
2023-04-02T03:29:00.915Z,41.38
2023-04-02T03:30:00.998Z,46.14
2023-04-02T03:31:01.107Z,44.63
2023-04-02T03:32:00.119Z,41.95
2023-04-02T03:33:00.242Z,43.13
2023-04-02T03:34:01.244Z,40.54
2023-04-02T03:35:01.290Z,40.38
2023-04-02T03:36:01.384Z,41.62
2023-04-02T03:37:01.426Z,40.59
2023-04-02T03:38:01.491Z,40.84
2023-04-02T03:39:00.576Z,40.52
2023-04-02T03:40:01.618Z,41.73
2023-04-02T03:41:00.662Z,43.87
2023-04-02T03:42:01.728Z,36.89
2023-04-02T03:43:01.789Z,42.85
2023-04-02T03:44:01.835Z,43.47
2023-04-02T03:45:01.883Z,40.18
2023-04-02T03:46:01.953Z,43.17
2023-04-02T03:47:02.008Z,41.47
2023-04-02T03:48:02.099Z,43.77
2023-04-02T03:49:02.129Z,43.61
2023-04-02T03:50:02.191Z,47.71
2023-04-02T03:51:02.229Z,41.05
2023-04-02T03:52:02.234Z,43.40
2023-04-02T03:53:02.275Z,46.08
2023-04-02T03:54:02.338Z,41.38
2023-04-02T03:55:02.366Z,45.98
2023-04-02T03:56:02.412Z,46.10
2023-04-02T03:57:02.508Z,47.16
2023-04-02T03:58:02.520Z,43.47
2023-04-02T03:59:02.582Z,42.28
2023-04-02T04:00:02.663Z,43.63
2023-04-02T04:01:01.680Z,45.29
2023-04-02T04:02:02.777Z,44.31
2023-04-02T04:03:01.870Z,41.79
2023-04-02T04:04:02.874Z,43.55
2023-04-02T04:05:02.856Z,40.03
2023-04-02T04:06:01.910Z,41.72
2023-04-02T04:07:02.949Z,43.35
2023-04-02T04:08:02.991Z,45.44
2023-04-02T04:09:02.036Z,45.70
2023-04-02T04:10:03.089Z,43.44
2023-04-02T04:11:02.111Z,39.68
2023-04-02T04:12:02.098Z,43.72
2023-04-02T04:13:03.141Z,44.37
2023-04-02T04:14:03.172Z,43.57
2023-04-02T04:15:03.175Z,39.25
2023-04-02T04:16:03.193Z,42.89
2023-04-02T04:17:02.214Z,41.97
2023-04-02T04:18:03.271Z,41.22
2023-04-02T04:19:03.318Z,42.21
2023-04-02T04:20:03.317Z,36.22
2023-04-02T04:21:03.366Z,38.29
2023-04-02T04:22:03.352Z,45.06
2023-04-02T04:23:02.367Z,40.97
2023-04-02T04:24:03.422Z,40.36
2023-04-02T04:25:02.467Z,40.83
2023-04-02T04:26:03.538Z,40.64
2023-04-02T04:27:03.587Z,40.13
2023-04-02T04:28:02.641Z,41.96
2023-04-02T04:29:03.654Z,42.57
2023-04-02T04:30:02.688Z,45.40
2023-04-02T04:31:03.738Z,44.44
2023-04-02T04:32:03.840Z,42.01
2023-04-02T04:33:03.999Z,42.33
2023-04-02T04:34:03.948Z,39.68
2023-04-02T04:35:02.974Z,41.16
2023-04-02T04:36:04.084Z,46.21
2023-04-02T04:37:04.075Z,42.16
2023-04-02T04:38:04.159Z,42.27
2023-04-02T04:39:04.167Z,46.44
2023-04-02T04:40:03.195Z,44.29
2023-04-02T04:41:04.241Z,39.42
2023-04-02T04:42:04.332Z,36.73
2023-04-02T04:43:04.338Z,39.30
2023-04-02T04:44:04.443Z,42.44
2023-04-02T04:45:04.450Z,41.32
2023-04-02T04:46:04.540Z,39.23
2023-04-02T04:47:04.565Z,42.51
2023-04-02T04:48:04.710Z,45.60
2023-04-02T04:49:04.764Z,38.65
2023-04-02T04:50:03.751Z,40.35
2023-04-02T04:51:04.769Z,42.17
2023-04-02T04:52:04.806Z,41.00
2023-04-02T04:53:04.838Z,41.19
2023-04-02T04:54:04.897Z,34.25
2023-04-02T04:55:04.922Z,41.79
2023-04-02T04:56:18.229Z,41.01
2023-04-02T04:57:04.969Z,41.16
2023-04-02T04:58:04.957Z,42.21
2023-04-02T04:59:04.930Z,42.24
2023-04-02T05:00:04.913Z,41.91
2023-04-02T05:01:04.930Z,39.28
2023-04-02T05:02:04.897Z,41.58
2023-04-02T05:03:05.005Z,41.03
2023-04-02T05:04:05.463Z,41.64
2023-04-02T05:05:04.928Z,41.02
2023-04-02T05:06:03.855Z,36.47
2023-04-02T05:07:04.854Z,39.67
2023-04-02T05:08:05.017Z,39.59
2023-04-02T05:09:04.851Z,38.35
2023-04-02T05:10:04.824Z,39.65
2023-04-02T05:11:03.827Z,38.96
2023-04-02T05:12:04.831Z,41.13
2023-04-02T05:13:03.799Z,41.70
2023-04-02T05:14:04.821Z,42.74
2023-04-02T05:15:04.807Z,42.69
2023-04-02T05:16:04.845Z,37.93
2023-04-02T05:17:03.786Z,42.99
2023-04-02T05:18:04.811Z,37.11
2023-04-02T05:19:04.844Z,40.06
2023-04-02T05:20:04.788Z,33.74
2023-04-02T05:21:03.743Z,39.20
2023-04-02T05:22:04.734Z,39.54
2023-04-02T05:23:04.737Z,39.47
2023-04-02T05:24:04.785Z,34.02
2023-04-02T05:25:04.728Z,35.18
2023-04-02T05:26:04.713Z,38.84
2023-04-02T05:27:04.705Z,35.64
2023-04-02T05:28:04.710Z,36.99
2023-04-02T05:29:04.699Z,36.11
2023-04-02T05:30:03.715Z,34.40
2023-04-02T05:31:04.705Z,38.90
2023-04-02T05:32:04.672Z,36.50
2023-04-02T05:33:04.762Z,38.71
2023-04-02T05:34:04.667Z,36.16
2023-04-02T05:35:04.688Z,37.33
2023-04-02T05:36:04.733Z,36.75
2023-04-02T05:37:06.973Z,33.98
2023-04-02T05:38:03.665Z,34.23
2023-04-02T05:39:04.694Z,34.56
2023-04-02T05:40:03.624Z,36.30
2023-04-02T05:41:03.616Z,35.54
2023-04-02T05:42:03.602Z,39.19
2023-04-02T05:43:04.593Z,37.14
2023-04-02T05:44:03.590Z,36.94
2023-04-02T05:45:03.632Z,37.73
2023-04-02T05:46:04.602Z,43.03
2023-04-02T05:47:04.580Z,37.94
2023-04-02T05:48:03.628Z,37.06
2023-04-02T05:49:04.555Z,36.18
2023-04-02T05:50:03.585Z,38.57
2023-04-02T05:51:03.562Z,37.98
2023-04-02T05:52:04.555Z,35.94
2023-04-02T05:53:04.610Z,34.12
2023-04-02T05:54:03.525Z,34.87
2023-04-02T05:55:04.566Z,34.63
2023-04-02T05:56:04.513Z,40.30
2023-04-02T05:57:04.557Z,36.52
2023-04-02T05:58:29.481Z,37.90
2023-04-02T05:59:04.515Z,38.26
2023-04-02T06:00:03.536Z,38.93
2023-04-02T06:01:04.465Z,39.18
2023-04-02T06:02:04.604Z,41.42
2023-04-02T06:03:04.519Z,43.62
2023-04-02T06:04:04.502Z,41.51
2023-04-02T06:05:04.533Z,37.63
2023-04-02T06:06:04.460Z,35.48
2023-04-02T06:07:04.433Z,36.47
2023-04-02T06:08:04.484Z,37.69
2023-04-02T06:09:04.412Z,41.39
2023-04-02T06:10:04.426Z,37.18
2023-04-02T06:11:04.382Z,40.41
2023-04-02T06:12:04.388Z,39.13
2023-04-02T06:13:04.485Z,40.32
2023-04-02T06:14:04.375Z,39.19
2023-04-02T06:15:04.381Z,36.69
2023-04-02T06:16:04.356Z,38.61
2023-04-02T06:17:04.410Z,43.23
2023-04-02T06:18:04.458Z,42.47
2023-04-02T06:19:04.327Z,41.39
2023-04-02T06:20:04.341Z,41.90
2023-04-02T06:21:04.323Z,40.46
2023-04-02T06:22:03.314Z,40.64
2023-04-02T06:23:03.296Z,38.63
2023-04-02T06:24:04.293Z,36.22
2023-04-02T06:25:04.307Z,36.43
2023-04-02T06:26:04.299Z,40.34
2023-04-02T06:27:04.299Z,41.98
2023-04-02T06:28:04.314Z,41.96
2023-04-02T06:29:04.247Z,43.45
2023-04-02T06:30:04.256Z,41.09
2023-04-02T06:31:04.342Z,42.57
2023-04-02T06:32:04.247Z,44.02
2023-04-02T06:33:04.301Z,42.31
2023-04-02T06:34:04.261Z,43.45
2023-04-02T06:35:03.217Z,48.90
2023-04-02T06:36:03.261Z,50.82
2023-04-02T06:37:04.197Z,49.30
2023-04-02T06:38:04.250Z,49.69
2023-04-02T06:39:04.174Z,53.07
2023-04-02T06:40:03.165Z,50.35
2023-04-02T06:41:04.187Z,50.66
2023-04-02T06:42:04.172Z,51.14
2023-04-02T06:43:04.159Z,56.32
2023-04-02T06:44:03.148Z,56.02
2023-04-02T06:45:04.196Z,61.04
2023-04-02T06:46:04.174Z,66.41
2023-04-02T06:47:04.125Z,69.37
2023-04-02T06:48:04.143Z,68.49
2023-04-02T06:49:04.107Z,68.92
2023-04-02T06:50:03.133Z,69.60
2023-04-02T06:51:03.095Z,71.63
2023-04-02T06:52:03.091Z,74.89
2023-04-02T06:53:04.199Z,77.65
2023-04-02T06:54:04.092Z,75.94
2023-04-02T06:55:04.089Z,81.47
2023-04-02T06:56:04.078Z,75.90
2023-04-02T06:57:03.087Z,80.99
2023-04-02T06:58:04.109Z,84.16
2023-04-02T06:59:04.146Z,88.43
2023-04-02T07:00:03.180Z,85.06
2023-04-02T07:01:04.337Z,86.11
2023-04-02T07:02:04.247Z,82.55
2023-04-02T07:03:04.341Z,80.33
2023-04-02T07:04:03.335Z,82.18
2023-04-02T07:05:04.488Z,82.48
2023-04-02T07:06:03.470Z,84.26
2023-04-02T07:07:04.485Z,81.06
2023-04-02T07:08:04.522Z,81.39
2023-04-02T07:09:03.581Z,80.98
2023-04-02T07:10:04.648Z,80.62
2023-04-02T07:11:04.702Z,79.81
2023-04-02T07:12:04.763Z,80.36
2023-04-02T07:13:04.813Z,83.34
2023-04-02T07:14:03.864Z,82.91
2023-04-02T07:15:04.933Z,86.08
2023-04-02T07:16:05.024Z,82.38
2023-04-02T07:17:05.044Z,83.21
2023-04-02T07:18:05.143Z,84.34
2023-04-02T07:19:05.169Z,82.03
2023-04-02T07:20:04.168Z,88.09
2023-04-02T07:21:05.234Z,86.48
2023-04-02T07:22:05.269Z,80.55
2023-04-02T07:23:04.305Z,80.28
2023-04-02T07:24:05.343Z,84.10
2023-04-02T07:25:05.395Z,81.60
2023-04-02T07:26:05.448Z,86.28
2023-04-02T07:27:05.508Z,84.97
2023-04-02T07:28:05.537Z,84.04
2023-04-02T07:29:05.598Z,80.99
2023-04-02T07:30:05.633Z,82.59
2023-04-02T07:31:04.710Z,78.64
2023-04-02T07:32:05.703Z,80.47
2023-04-02T07:33:05.794Z,78.49
2023-04-02T07:34:06.470Z,84.02
2023-04-02T07:35:05.834Z,83.68
2023-04-02T07:36:05.897Z,83.19
2023-04-02T07:37:05.973Z,87.83
2023-04-02T07:38:05.993Z,89.97
2023-04-02T07:39:06.044Z,82.95
2023-04-02T07:40:05.074Z,83.26
2023-04-02T07:41:06.133Z,83.01
2023-04-02T07:42:06.188Z,82.39
2023-04-02T07:43:06.246Z,78.40
2023-04-02T07:44:05.985Z,76.65
2023-04-02T07:45:06.421Z,78.32
2023-04-02T07:46:06.466Z,75.81
2023-04-02T07:47:06.529Z,74.87
2023-04-02T07:48:06.621Z,75.89
2023-04-02T07:49:05.633Z,80.23
2023-04-02T07:50:06.693Z,82.56
2023-04-02T07:51:06.794Z,77.68
2023-04-02T07:52:05.820Z,81.93
2023-04-02T07:53:06.913Z,83.16
2023-04-02T07:54:06.945Z,85.11
2023-04-02T07:55:07.000Z,85.01
2023-04-02T07:56:07.155Z,86.87
2023-04-02T07:57:07.162Z,84.34
2023-04-02T07:58:07.191Z,80.68
2023-04-02T07:59:07.260Z,84.86
2023-04-02T08:00:07.315Z,81.18
2023-04-02T08:01:07.395Z,80.08
2023-04-02T08:02:07.580Z,81.43
2023-04-02T08:03:06.546Z,82.45
2023-04-02T08:04:06.563Z,78.66
2023-04-02T08:05:06.608Z,75.96
2023-04-02T08:06:06.679Z,79.07
2023-04-02T08:07:06.743Z,78.12
2023-04-02T08:08:07.809Z,72.61
2023-04-02T08:09:06.881Z,71.84
2023-04-02T08:10:07.914Z,75.78
2023-04-02T08:11:07.994Z,76.93
2023-04-02T08:12:08.057Z,82.74
2023-04-02T08:13:08.105Z,75.34
2023-04-02T08:14:07.161Z,72.67
2023-04-02T08:15:08.234Z,69.97
2023-04-02T08:16:08.331Z,71.91
2023-04-02T08:17:08.347Z,74.58
2023-04-02T08:18:07.454Z,76.78
2023-04-02T08:19:08.478Z,71.87
2023-04-02T08:20:08.548Z,70.55
2023-04-02T08:21:08.612Z,76.38
2023-04-02T08:22:07.673Z,76.35
2023-04-02T08:23:08.760Z,74.76
2023-04-02T08:24:08.807Z,77.57
2023-04-02T08:25:08.896Z,79.50
2023-04-02T08:26:08.931Z,75.04
2023-04-02T08:27:09.001Z,74.24
2023-04-02T08:28:09.042Z,73.98
2023-04-02T08:29:09.101Z,78.65
2023-04-02T08:30:09.157Z,78.94
2023-04-02T08:31:09.277Z,80.91
2023-04-02T08:32:08.282Z,76.90
2023-04-02T08:33:09.402Z,82.31
2023-04-02T08:34:09.403Z,79.24
2023-04-02T08:35:08.474Z,79.64
2023-04-02T08:36:09.606Z,87.32
2023-04-02T08:37:08.593Z,77.65
2023-04-02T08:38:09.664Z,75.73
2023-04-02T08:39:09.729Z,74.07
2023-04-02T08:40:09.767Z,76.01
2023-04-02T08:41:09.806Z,79.65
2023-04-02T08:42:09.818Z,79.97
2023-04-02T08:43:09.828Z,80.82
2023-04-02T08:44:09.835Z,83.66
2023-04-02T08:45:23.658Z,90.32
2023-04-02T08:46:09.965Z,90.32
2023-04-02T08:47:09.871Z,86.01
2023-04-02T08:48:09.857Z,86.33
2023-04-02T08:49:08.834Z,82.59
2023-04-02T08:50:08.827Z,80.15
2023-04-02T08:51:09.810Z,77.98
2023-04-02T08:52:08.814Z,78.84
2023-04-02T08:53:09.796Z,74.95
2023-04-02T08:54:09.790Z,76.67
2023-04-02T08:55:09.787Z,76.93
2023-04-02T08:56:08.773Z,85.94
2023-04-02T08:57:09.814Z,84.88
2023-04-02T08:58:09.763Z,85.31
2023-04-02T08:59:09.746Z,88.72
2023-04-02T09:00:09.751Z,86.59
2023-04-02T09:01:09.786Z,88.56
2023-04-02T09:02:09.733Z,84.70
2023-04-02T09:03:09.771Z,87.27
2023-04-02T09:04:09.715Z,91.24
2023-04-02T09:05:09.826Z,84.61
2023-04-02T09:06:09.720Z,79.73
2023-04-02T09:07:09.687Z,81.46
2023-04-02T09:08:09.695Z,83.19
2023-04-02T09:09:09.669Z,86.30
2023-04-02T09:10:09.665Z,91.77
2023-04-02T09:11:08.664Z,86.65
2023-04-02T09:12:09.648Z,88.85
2023-04-02T09:13:08.688Z,84.78
2023-04-02T09:14:08.649Z,90.85
2023-04-02T09:15:09.644Z,86.58
2023-04-02T09:16:09.687Z,83.71
2023-04-02T09:17:09.622Z,81.77
2023-04-02T09:18:08.674Z,85.84
2023-04-02T09:19:09.637Z,89.01
2023-04-02T09:20:09.595Z,90.98
2023-04-02T09:21:08.614Z,91.21
2023-04-02T09:22:08.993Z,89.73
2023-04-02T09:23:09.663Z,80.54
2023-04-02T09:24:09.680Z,82.83
2023-04-02T09:25:08.745Z,82.67
2023-04-02T09:26:09.797Z,83.63
2023-04-02T09:27:09.865Z,85.32
2023-04-02T09:28:09.911Z,82.97
2023-04-02T09:29:10.022Z,84.29
2023-04-02T09:30:10.024Z,80.22
2023-04-02T09:31:09.096Z,74.75
2023-04-02T09:32:09.069Z,69.81
2023-04-02T09:33:10.215Z,70.99
2023-04-02T09:34:10.135Z,71.00
2023-04-02T09:35:18.408Z,63.55
2023-04-02T09:36:10.177Z,63.71
2023-04-02T09:37:10.124Z,62.64
2023-04-02T09:38:09.149Z,56.14
2023-04-02T09:39:10.196Z,58.88
2023-04-02T09:40:09.125Z,55.18
2023-04-02T09:41:09.105Z,56.26
2023-04-02T09:42:09.107Z,56.12
2023-04-02T09:43:10.092Z,55.76
2023-04-02T09:44:10.078Z,55.28
2023-04-02T09:45:10.147Z,52.74
2023-04-02T09:46:09.132Z,47.19
2023-04-02T09:47:09.055Z,51.59
2023-04-02T09:48:09.086Z,49.36
2023-04-02T09:49:10.054Z,48.34
2023-04-02T09:50:09.044Z,48.09
2023-04-02T09:51:10.150Z,47.40
2023-04-02T09:52:09.109Z,48.12
2023-04-02T09:53:10.147Z,44.00
2023-04-02T09:54:09.186Z,44.80
2023-04-02T09:55:10.237Z,43.62
2023-04-02T09:56:09.336Z,43.34
2023-04-02T09:57:10.433Z,45.06
2023-04-02T09:58:10.446Z,44.99
2023-04-02T09:59:10.501Z,43.27
2023-04-02T10:00:21.436Z,44.01
2023-04-02T10:01:10.628Z,44.27
2023-04-02T10:02:09.559Z,44.69
2023-04-02T10:03:10.545Z,44.54
2023-04-02T10:04:10.604Z,46.67
2023-04-02T10:05:10.528Z,42.58
2023-04-02T10:06:10.525Z,42.66
2023-04-02T10:07:09.552Z,45.73
2023-04-02T10:08:10.507Z,44.81
2023-04-02T10:09:10.495Z,44.07
2023-04-02T10:10:10.502Z,43.10
2023-04-02T10:11:10.496Z,40.54
2023-04-02T10:12:10.481Z,43.12
2023-04-02T10:13:10.470Z,44.85
2023-04-02T10:14:09.465Z,46.28
2023-04-02T10:15:09.441Z,47.28
2023-04-02T10:16:10.480Z,46.59
2023-04-02T10:17:10.512Z,45.17
2023-04-02T10:18:10.438Z,44.92
2023-04-02T10:19:10.410Z,45.64
2023-04-02T10:20:10.406Z,43.07
2023-04-02T10:21:10.391Z,40.60
2023-04-02T10:22:10.392Z,41.72
2023-04-02T10:23:10.403Z,41.24
2023-04-02T10:24:10.479Z,39.57
2023-04-02T10:25:10.543Z,44.99
2023-04-02T10:26:09.592Z,42.69
2023-04-02T10:27:09.961Z,45.67
2023-04-02T10:28:09.718Z,42.49
2023-04-02T10:29:10.826Z,46.00
2023-04-02T10:30:09.850Z,40.19
2023-04-02T10:31:10.539Z,41.87
2023-04-02T10:32:10.956Z,41.17
2023-04-02T10:33:11.099Z,42.59
2023-04-02T10:34:10.105Z,43.21
2023-04-02T10:35:10.187Z,43.69
2023-04-02T10:36:10.249Z,46.25
2023-04-02T10:37:11.280Z,48.45
2023-04-02T10:38:11.333Z,46.77
2023-04-02T10:39:10.382Z,45.62
2023-04-02T10:40:11.462Z,44.37
2023-04-02T10:41:10.505Z,39.81
2023-04-02T10:42:11.564Z,40.30
2023-04-02T10:43:11.635Z,41.60
2023-04-02T10:44:19.429Z,42.18
2023-04-02T10:45:11.721Z,42.51
2023-04-02T10:46:11.713Z,42.31
2023-04-02T10:47:11.667Z,42.13
2023-04-02T10:48:11.717Z,40.57
2023-04-02T10:49:11.713Z,41.52
2023-04-02T10:50:11.678Z,40.34
2023-04-02T10:51:11.660Z,39.70
2023-04-02T10:52:11.680Z,38.07
2023-04-02T10:53:11.641Z,37.44
2023-04-02T10:54:10.697Z,36.09
2023-04-02T10:55:11.743Z,35.16
2023-04-02T10:56:11.808Z,34.65
2023-04-02T10:57:10.970Z,39.93
2023-04-02T10:58:11.932Z,37.28
2023-04-02T10:59:12.010Z,35.19
2023-04-02T11:00:12.180Z,32.19
2023-04-02T11:01:12.175Z,35.69
2023-04-02T11:02:11.190Z,35.66
2023-04-02T11:03:12.466Z,34.42
2023-04-02T11:04:14.212Z,34.18
2023-04-02T11:05:11.325Z,33.01
2023-04-02T11:06:12.308Z,34.07
2023-04-02T11:07:14.811Z,33.17
2023-04-02T11:08:11.303Z,33.45
2023-04-02T11:09:12.318Z,33.25
2023-04-02T11:10:12.278Z,31.27
2023-04-02T11:11:12.258Z,33.25
2023-04-02T11:12:12.265Z,28.93
2023-04-02T11:13:12.265Z,30.12
2023-04-02T11:14:12.244Z,25.32
2023-04-02T11:15:12.323Z,27.69
2023-04-02T11:16:12.243Z,26.06
2023-04-02T11:17:12.230Z,26.24
2023-04-02T11:18:12.222Z,27.96
2023-04-02T11:19:12.208Z,28.53
2023-04-02T11:20:12.250Z,31.27
2023-04-02T11:21:12.251Z,29.94
2023-04-02T11:22:12.183Z,29.14
2023-04-02T11:23:11.200Z,30.70
2023-04-02T11:24:12.164Z,29.47
2023-04-02T11:25:11.179Z,30.61
2023-04-02T11:26:11.149Z,33.14
2023-04-02T11:27:12.307Z,31.47
2023-04-02T11:28:12.155Z,32.67
2023-04-02T11:29:12.166Z,31.62
2023-04-02T11:30:12.222Z,38.09
2023-04-02T11:31:12.367Z,36.21
2023-04-02T11:32:12.369Z,35.40
2023-04-02T11:33:12.408Z,35.76
2023-04-02T11:34:12.477Z,32.10
2023-04-02T11:35:12.537Z,31.65
2023-04-02T11:36:12.620Z,29.44
2023-04-02T11:37:11.682Z,33.67
2023-04-02T11:38:12.731Z,32.38
2023-04-02T11:39:17.449Z,32.75
2023-04-02T11:40:12.787Z,33.10
2023-04-02T11:41:12.768Z,33.68
2023-04-02T11:42:11.771Z,32.80
2023-04-02T11:43:12.736Z,33.42
2023-04-02T11:44:12.761Z,30.83
2023-04-02T11:45:12.720Z,31.06
2023-04-02T11:46:12.735Z,27.40
2023-04-02T11:47:12.724Z,25.15
2023-04-02T11:48:12.700Z,29.25
2023-04-02T11:49:12.692Z,30.24
2023-04-02T11:50:12.687Z,26.88
2023-04-02T11:51:12.701Z,26.88
2023-04-02T11:52:12.973Z,25.60
2023-04-02T11:53:12.685Z,25.45
2023-04-02T11:54:12.686Z,26.17
2023-04-02T11:55:12.642Z,25.93
2023-04-02T11:56:11.637Z,29.60
2023-04-02T11:57:12.670Z,30.88
2023-04-02T11:58:12.635Z,27.51
2023-04-02T11:59:11.616Z,30.93
2023-04-02T12:00:12.619Z,29.08
2023-04-02T12:01:11.616Z,27.94
2023-04-02T12:02:11.654Z,31.13
2023-04-02T12:03:11.792Z,28.17
2023-04-02T12:04:12.784Z,30.34
2023-04-02T12:05:12.918Z,29.39
2023-04-02T12:06:11.915Z,25.43
2023-04-02T12:07:12.964Z,30.08
2023-04-02T12:08:13.030Z,27.27
2023-04-02T12:09:13.140Z,29.05
2023-04-02T12:10:12.150Z,26.69
2023-04-02T12:11:13.231Z,27.79
2023-04-02T12:12:13.284Z,29.42
2023-04-02T12:13:13.347Z,25.00
2023-04-02T12:14:13.408Z,25.00
2023-04-02T12:15:12.465Z,29.64
2023-04-02T12:16:13.534Z,28.08
2023-04-02T12:17:12.734Z,28.13
2023-04-02T12:18:13.643Z,27.70
2023-04-02T12:19:12.711Z,30.21
2023-04-02T12:20:13.809Z,28.09
2023-04-02T12:21:13.840Z,29.35
2023-04-02T12:22:13.907Z,25.01
2023-04-02T12:23:13.969Z,29.41
2023-04-02T12:24:13.036Z,28.65
2023-04-02T12:25:14.111Z,28.20
2023-04-02T12:26:13.147Z,28.15
2023-04-02T12:27:13.182Z,28.14
2023-04-02T12:28:14.243Z,26.90
2023-04-02T12:29:14.341Z,26.00
2023-04-02T12:30:14.328Z,28.36
2023-04-02T12:31:14.517Z,27.44
2023-04-02T12:32:13.435Z,27.45
2023-04-02T12:33:14.495Z,27.26
2023-04-02T12:34:14.521Z,27.31
2023-04-02T12:35:14.607Z,28.99
2023-04-02T12:36:14.720Z,26.97
2023-04-02T12:37:14.665Z,26.40
2023-04-02T12:38:14.731Z,25.79
2023-04-02T12:39:14.790Z,28.68
2023-04-02T12:40:14.838Z,29.94
2023-04-02T12:41:13.932Z,28.26
2023-04-02T12:42:13.947Z,29.79
2023-04-02T12:43:13.983Z,27.79
2023-04-02T12:44:15.042Z,26.62
2023-04-02T12:45:15.105Z,26.74
2023-04-02T12:46:15.204Z,29.73
2023-04-02T12:47:15.234Z,31.16
2023-04-02T12:48:14.295Z,29.23
2023-04-02T12:49:15.362Z,27.24
2023-04-02T12:50:15.415Z,27.14
2023-04-02T12:51:17.517Z,28.98
2023-04-02T12:52:14.495Z,32.38
2023-04-02T12:53:15.475Z,31.48